createdAt,value
2018-12-07T00:02:25.065Z,12.13
2018-12-07T00:04:50.803Z,11.97
2018-12-07T00:07:17.076Z,12.17
2018-12-07T00:09:42.843Z,14.37
2018-12-07T00:12:08.673Z,12.80
2018-12-07T00:14:35.700Z,11.47
2018-12-07T00:17:01.725Z,11.97
2018-12-07T00:19:28.392Z,12.30
2018-12-07T00:21:54.436Z,12.67
2018-12-07T00:24:20.739Z,10.03
2018-12-07T00:26:47.120Z,11.03
2018-12-07T00:29:13.043Z,11.57
2018-12-07T00:31:38.783Z,10.53
2018-12-07T00:34:04.627Z,10.30
2018-12-07T00:36:30.463Z,9.47
2018-12-07T00:38:56.188Z,10.83
2018-12-07T00:41:21.963Z,11.10
2018-12-07T00:43:47.747Z,10.37
2018-12-07T00:46:13.471Z,10.33
2018-12-07T00:48:39.204Z,10.93
2018-12-07T00:51:05.019Z,10.40
2018-12-07T00:53:30.876Z,9.33
2018-12-07T00:55:56.623Z,8.53
2018-12-07T00:58:22.351Z,9.47
2018-12-07T01:00:48.251Z,9.80
2018-12-07T01:03:13.975Z,8.97
2018-12-07T01:05:39.716Z,8.47
2018-12-07T01:08:05.452Z,7.87
2018-12-07T01:10:31.193Z,6.90
2018-12-07T01:12:56.922Z,7.17
2018-12-07T01:15:22.855Z,8.27
2018-12-07T01:17:48.683Z,7.77
2018-12-07T01:20:14.418Z,7.70
2018-12-07T01:22:40.243Z,6.13
2018-12-07T01:25:06.086Z,7.37
2018-12-07T01:27:31.810Z,5.80
2018-12-07T01:29:57.552Z,6.67
2018-12-07T01:32:23.294Z,5.67
2018-12-07T01:34:49.020Z,7.23
2018-12-07T01:37:14.750Z,7.17
2018-12-07T01:39:40.459Z,5.90
2018-12-07T01:42:06.318Z,5.87
2018-12-07T01:44:32.048Z,5.90
2018-12-07T01:46:57.775Z,5.13
2018-12-07T01:49:23.595Z,5.63
2018-12-07T01:51:49.318Z,5.53
2018-12-07T01:54:15.039Z,5.50
2018-12-07T01:56:40.779Z,5.13
2018-12-07T01:59:06.499Z,5.53
2018-12-07T02:01:39.172Z,5.60
2018-12-07T02:04:04.909Z,5.03
2018-12-07T02:06:30.647Z,5.37
2018-12-07T02:08:56.367Z,5.00
2018-12-07T02:11:22.104Z,5.30
2018-12-07T02:13:47.833Z,5.47
2018-12-07T02:16:13.560Z,5.00
2018-12-07T02:18:39.402Z,4.40
2018-12-07T02:21:05.231Z,5.50
2018-12-07T02:23:31.060Z,4.63
2018-12-07T02:25:56.777Z,4.70
2018-12-07T02:28:22.517Z,3.83
2018-12-07T02:30:48.239Z,4.50
2018-12-07T02:33:13.965Z,4.27
2018-12-07T02:35:39.795Z,4.73
2018-12-07T02:38:05.546Z,4.47
2018-12-07T02:40:31.476Z,4.30
2018-12-07T02:42:57.213Z,4.80
2018-12-07T02:45:23.039Z,4.90
2018-12-07T02:47:48.771Z,4.73
2018-12-07T02:50:14.600Z,4.80
2018-12-07T02:52:40.332Z,5.03
2018-12-07T02:55:06.174Z,5.20
2018-12-07T02:57:32.015Z,5.37
2018-12-07T02:59:57.838Z,5.23
2018-12-07T03:02:23.581Z,5.43
2018-12-07T03:04:49.333Z,5.30
2018-12-07T03:07:15.276Z,5.80
2018-12-07T03:09:40.995Z,6.20
2018-12-07T03:12:06.719Z,5.60
2018-12-07T03:14:32.544Z,6.17
2018-12-07T03:16:58.268Z,5.77
2018-12-07T03:19:24.097Z,5.17
2018-12-07T03:21:49.823Z,4.20
2018-12-07T03:24:15.555Z,5.33
2018-12-07T03:26:41.387Z,4.93
2018-12-07T03:29:07.207Z,4.70
2018-12-07T03:31:33.031Z,4.50
2018-12-07T03:33:58.752Z,5.03
2018-12-07T03:36:24.584Z,4.30
2018-12-07T03:38:50.412Z,5.10
2018-12-07T03:41:16.335Z,5.70
2018-12-07T03:43:42.161Z,5.00
2018-12-07T03:46:07.873Z,5.20
2018-12-07T03:48:33.604Z,5.30
2018-12-07T03:50:59.320Z,4.80
2018-12-07T03:53:25.204Z,4.80
2018-12-07T03:55:50.927Z,6.10
2018-12-07T03:58:16.663Z,5.17
2018-12-07T04:00:42.391Z,5.90
2018-12-07T04:03:08.128Z,5.90
2018-12-07T04:05:33.952Z,6.00
2018-12-07T04:07:59.672Z,6.23
2018-12-07T04:10:25.417Z,6.97
2018-12-07T04:12:51.137Z,7.63
2018-12-07T04:15:17.197Z,7.63
2018-12-07T04:17:42.915Z,9.20
2018-12-07T04:20:08.761Z,9.77
2018-12-07T04:22:34.591Z,10.93
2018-12-07T04:25:00.350Z,12.23
2018-12-07T04:27:26.077Z,13.50
2018-12-07T04:29:55.848Z,15.20
2018-12-07T04:32:21.570Z,16.67
2018-12-07T04:34:48.307Z,18.73
2018-12-07T04:37:14.040Z,20.00
2018-12-07T04:39:39.777Z,20.57
2018-12-07T04:42:05.491Z,20.03
2018-12-07T04:44:38.319Z,21.23
2018-12-07T04:47:04.079Z,23.43
2018-12-07T04:49:29.919Z,21.87
2018-12-07T04:51:55.645Z,19.67
2018-12-07T04:54:21.473Z,19.80
2018-12-07T04:56:47.204Z,18.57
2018-12-07T04:59:12.946Z,17.80
2018-12-07T05:01:38.795Z,16.10
2018-12-07T05:04:04.521Z,15.03
2018-12-07T05:06:30.256Z,15.37
2018-12-07T05:08:56.071Z,12.20
2018-12-07T05:11:21.797Z,12.27
2018-12-07T05:13:47.511Z,11.63
2018-12-07T05:16:13.247Z,12.67
2018-12-07T05:18:38.980Z,11.73
2018-12-07T05:21:04.734Z,10.13
2018-12-07T05:23:30.455Z,10.57
2018-12-07T05:25:56.201Z,8.77
2018-12-07T05:28:22.139Z,8.43
2018-12-07T05:30:47.989Z,8.60
2018-12-07T05:33:13.727Z,8.23
2018-12-07T05:35:39.488Z,8.97
2018-12-07T05:38:05.208Z,7.83
2018-12-07T05:40:31.037Z,7.80
2018-12-07T05:42:56.767Z,7.60
2018-12-07T05:45:22.495Z,7.33
2018-12-07T05:47:48.235Z,8.63
2018-12-07T05:50:13.953Z,8.10
2018-12-07T05:52:39.687Z,7.17
2018-12-07T05:55:05.611Z,9.20
2018-12-07T05:57:31.340Z,7.13
2018-12-07T05:59:57.179Z,6.63
2018-12-07T06:02:23.024Z,6.40
2018-12-07T06:04:48.742Z,7.93
2018-12-07T06:07:14.467Z,7.23
2018-12-07T06:09:40.286Z,7.03
2018-12-07T06:12:06.016Z,7.03
2018-12-07T06:14:31.836Z,7.10
2018-12-07T06:16:57.563Z,6.43
2018-12-07T06:19:23.400Z,6.43
2018-12-07T06:21:49.139Z,7.47
2018-12-07T06:24:14.876Z,7.03
2018-12-07T06:26:40.611Z,6.93
2018-12-07T06:29:06.338Z,7.00
2018-12-07T06:31:32.167Z,7.47
2018-12-07T06:33:57.900Z,7.37
2018-12-07T06:36:23.721Z,6.70
2018-12-07T06:38:49.467Z,7.57
2018-12-07T06:41:15.422Z,8.10
2018-12-07T06:43:41.152Z,7.20
2018-12-07T06:46:06.979Z,8.53
2018-12-07T06:48:32.816Z,8.60
2018-12-07T06:50:58.647Z,8.43
2018-12-07T06:53:24.562Z,8.10
2018-12-07T06:55:50.283Z,7.60
2018-12-07T06:58:16.119Z,8.00
2018-12-07T07:00:41.877Z,8.60
2018-12-07T07:03:07.628Z,8.57
2018-12-07T07:05:33.346Z,9.30
2018-12-07T07:07:59.067Z,11.37
2018-12-07T07:10:24.817Z,10.87
2018-12-07T07:12:50.548Z,11.97
2018-12-07T07:15:16.275Z,11.10
2018-12-07T07:17:42.004Z,13.73
2018-12-07T07:20:07.847Z,11.60
2018-12-07T07:22:33.575Z,13.13
2018-12-07T07:24:59.419Z,12.57
2018-12-07T07:27:25.258Z,14.97
2018-12-07T07:29:51.095Z,12.50
2018-12-07T07:32:16.928Z,13.03
2018-12-07T07:34:42.761Z,11.83
2018-12-07T07:37:08.578Z,12.87
2018-12-07T07:39:34.417Z,15.27
2018-12-07T07:42:00.167Z,13.40
2018-12-07T07:44:25.903Z,12.63
2018-12-07T07:46:51.944Z,11.53
2018-12-07T07:49:17.688Z,12.50
2018-12-07T07:51:43.509Z,12.67
2018-12-07T07:54:09.251Z,13.77
2018-12-07T07:56:35.385Z,12.93
2018-12-07T07:59:01.120Z,11.57
2018-12-07T08:01:26.971Z,10.50
2018-12-07T08:03:52.815Z,9.93
2018-12-07T08:06:18.651Z,11.23
2018-12-07T08:08:44.477Z,10.13
2018-12-07T08:11:10.224Z,10.00
2018-12-07T08:13:36.043Z,9.07
2018-12-07T08:16:01.994Z,8.60
2018-12-07T08:18:27.724Z,8.43
2018-12-07T08:20:53.463Z,8.57
2018-12-07T08:23:19.847Z,8.30
2018-12-07T08:25:45.701Z,8.27
2018-12-07T08:28:11.431Z,7.77
2018-12-07T08:30:37.259Z,7.43
2018-12-07T08:33:03.094Z,8.93
2018-12-07T08:35:28.833Z,11.30
2018-12-07T08:37:54.576Z,9.17
2018-12-07T08:40:20.324Z,8.60
2018-12-07T08:42:46.039Z,8.77
2018-12-07T08:45:11.910Z,8.63
2018-12-07T08:47:37.751Z,8.20
2018-12-07T08:50:04.791Z,8.40
2018-12-07T08:52:30.632Z,8.63
2018-12-07T08:54:56.353Z,9.23
2018-12-07T08:57:22.079Z,8.97
2018-12-07T08:59:47.902Z,8.67
2018-12-07T09:02:13.647Z,9.00
2018-12-07T09:04:39.375Z,9.93
2018-12-07T09:07:05.121Z,11.43
2018-12-07T09:09:30.874Z,10.80
2018-12-07T09:11:56.603Z,11.30
2018-12-07T09:14:22.338Z,9.47
2018-12-07T09:16:48.179Z,12.13
2018-12-07T09:19:13.903Z,13.53
2018-12-07T09:21:39.732Z,9.90
2018-12-07T09:24:05.455Z,12.93
2018-12-07T09:26:31.198Z,10.40
2018-12-07T09:28:56.915Z,9.73
2018-12-07T09:31:22.737Z,9.67
2018-12-07T09:33:48.471Z,9.57
2018-12-07T09:36:14.311Z,9.77
2018-12-07T09:38:40.048Z,10.33
2018-12-07T09:41:05.783Z,11.87
2018-12-07T09:43:31.528Z,11.10
2018-12-07T09:45:57.254Z,9.70
2018-12-07T09:48:22.994Z,11.57
2018-12-07T09:50:48.715Z,12.03
2018-12-07T09:53:14.443Z,9.60
2018-12-07T09:55:40.264Z,10.40
2018-12-07T09:58:05.995Z,9.83
2018-12-07T10:00:31.723Z,11.50
2018-12-07T10:02:57.461Z,8.70
2018-12-07T10:05:23.195Z,9.83
2018-12-07T10:07:48.924Z,8.67
2018-12-07T10:10:14.656Z,10.03
2018-12-07T10:12:40.395Z,9.17
2018-12-07T10:15:06.253Z,10.03
2018-12-07T10:17:32.088Z,9.63
2018-12-07T10:19:57.827Z,9.90
2018-12-07T10:22:23.555Z,10.03
2018-12-07T10:24:49.388Z,9.57
2018-12-07T10:27:15.133Z,8.73
2018-12-07T10:29:40.967Z,9.83
2018-12-07T10:32:06.705Z,9.10
2018-12-07T10:34:32.472Z,9.30
2018-12-07T10:36:58.211Z,11.13
2018-12-07T10:39:23.939Z,9.57
2018-12-07T10:41:56.936Z,9.93
2018-12-07T10:44:23.189Z,13.33
2018-12-07T10:46:49.584Z,9.87
2018-12-07T10:49:16.512Z,9.17
2018-12-07T10:51:42.944Z,10.50
2018-12-07T10:54:09.661Z,10.17
2018-12-07T10:56:36.257Z,9.10
2018-12-07T10:59:02.914Z,9.13
2018-12-07T11:01:34.934Z,10.23
2018-12-07T11:04:07.765Z,8.93
2018-12-07T11:06:40.185Z,9.80
2018-12-07T11:09:12.341Z,9.47
2018-12-07T11:11:40.227Z,7.77
2018-12-07T11:14:11.394Z,6.83
2018-12-07T11:16:43.588Z,8.07
2018-12-07T11:19:16.057Z,7.87
2018-12-07T11:21:48.522Z,7.30
2018-12-07T11:24:20.860Z,7.00
2018-12-07T11:29:56.488Z,6.60
2018-12-07T11:32:24.247Z,6.50
2018-12-07T11:34:51.897Z,6.30
2018-12-07T11:37:17.643Z,5.10
2018-12-07T11:39:43.504Z,4.80
2018-12-07T11:42:09.332Z,4.47
2018-12-07T11:44:36.586Z,5.50
2018-12-07T11:47:02.538Z,4.20
2018-12-07T11:49:30.283Z,4.17
2018-12-07T11:51:56.332Z,4.43
2018-12-07T11:54:22.179Z,5.87
2018-12-07T11:56:47.903Z,4.80
2018-12-07T11:59:13.734Z,3.73
2018-12-07T12:01:44.727Z,3.33
2018-12-07T12:04:07.235Z,3.70
2018-12-07T12:06:33.056Z,3.40
2018-12-07T12:08:58.895Z,3.80
2018-12-07T12:11:24.830Z,4.13
2018-12-07T12:13:50.572Z,3.40
2018-12-07T12:16:16.430Z,4.23
2018-12-07T12:18:42.224Z,3.67
2018-12-07T12:21:07.951Z,3.97
2018-12-07T12:23:33.755Z,4.60
2018-12-07T12:25:59.619Z,5.07
2018-12-07T12:28:25.347Z,5.53
2018-12-07T12:30:51.590Z,3.90
2018-12-07T12:33:17.336Z,4.53
2018-12-07T12:35:43.164Z,4.60
2018-12-07T12:38:08.907Z,4.80
2018-12-07T12:40:34.736Z,4.20
2018-12-07T12:43:07.419Z,4.77
2018-12-07T12:45:33.157Z,4.87
2018-12-07T12:47:59.019Z,5.00
2018-12-07T12:50:30.939Z,5.43
2018-12-07T12:52:56.791Z,4.80
2018-12-07T12:55:22.618Z,4.70
2018-12-07T12:57:48.343Z,5.50
2018-12-07T13:00:14.183Z,4.70
2018-12-07T13:02:39.923Z,5.47
2018-12-07T13:05:05.767Z,5.20
2018-12-07T13:07:31.516Z,4.37
2018-12-07T13:09:57.251Z,4.63
2018-12-07T13:12:22.990Z,4.37
2018-12-07T13:14:48.841Z,4.43
2018-12-07T13:17:14.551Z,4.10
2018-12-07T13:19:40.283Z,4.33
2018-12-07T13:22:06.015Z,4.73
2018-12-07T13:24:31.770Z,5.47
2018-12-07T13:26:57.592Z,4.33
2018-12-07T13:29:23.330Z,5.97
2018-12-07T13:31:49.069Z,4.47
2018-12-07T13:34:14.794Z,4.67
2018-12-07T13:36:40.506Z,4.60
2018-12-07T13:39:06.667Z,4.77
2018-12-07T13:41:32.408Z,4.70
2018-12-07T13:43:58.277Z,4.27
2018-12-07T13:46:24.327Z,5.50
2018-12-07T13:48:50.334Z,4.10
2018-12-07T13:51:16.202Z,4.60
2018-12-07T13:53:42.112Z,5.47
2018-12-07T13:56:08.014Z,5.57
2018-12-07T13:58:33.939Z,4.87
2018-12-07T14:00:59.837Z,5.70
2018-12-07T14:03:25.835Z,6.60
2018-12-07T14:05:51.838Z,5.90
2018-12-07T14:08:18.832Z,5.73
2018-12-07T14:10:44.828Z,5.70
2018-12-07T14:13:10.793Z,7.50
2018-12-07T14:15:36.577Z,6.83
2018-12-07T14:18:02.433Z,6.07
2018-12-07T14:20:28.403Z,6.83
2018-12-07T14:22:54.211Z,7.60
2018-12-07T14:25:20.075Z,5.93
2018-12-07T14:27:46.032Z,5.97
2018-12-07T14:30:12.136Z,6.17
2018-12-07T14:32:38.237Z,5.90
2018-12-07T14:35:04.490Z,5.13
2018-12-07T14:37:30.303Z,5.63
2018-12-07T14:39:56.315Z,5.03
2018-12-07T14:42:22.183Z,5.57
2018-12-07T14:44:48.002Z,5.13
2018-12-07T14:47:13.936Z,5.30
2018-12-07T14:49:39.788Z,5.63
2018-12-07T14:52:05.630Z,5.63
2018-12-07T14:54:31.547Z,5.67
2018-12-07T14:56:57.432Z,6.10
2018-12-07T14:59:23.268Z,6.17
2018-12-07T15:01:49.052Z,6.60
2018-12-07T15:04:15.312Z,6.17
2018-12-07T15:06:41.403Z,7.20
2018-12-07T15:09:07.577Z,6.83
2018-12-07T15:11:33.496Z,7.27
2018-12-07T15:13:59.504Z,7.90
2018-12-07T15:16:25.344Z,7.73
2018-12-07T15:18:51.374Z,8.63
2018-12-07T15:21:17.460Z,9.73
2018-12-07T15:23:43.356Z,9.80
2018-12-07T15:26:09.189Z,10.33
2018-12-07T15:28:35.142Z,9.93
2018-12-07T15:31:01.033Z,11.37
2018-12-07T15:33:27.126Z,11.37
2018-12-07T15:35:53.088Z,10.63
2018-12-07T15:38:19.048Z,12.67
2018-12-07T15:40:44.894Z,12.60
2018-12-07T15:43:10.796Z,11.97
2018-12-07T15:45:36.713Z,13.00
2018-12-07T15:48:02.628Z,12.57
2018-12-07T15:50:28.718Z,15.37
2018-12-07T15:52:54.794Z,13.30
2018-12-07T15:55:20.747Z,12.93
2018-12-07T15:57:46.643Z,13.30
2018-12-07T16:00:12.488Z,15.13
2018-12-07T16:02:38.356Z,14.63
2018-12-07T16:05:04.983Z,13.43
2018-12-07T16:07:31.103Z,17.33
2018-12-07T16:09:57.086Z,16.60
2018-12-07T16:12:22.963Z,14.37
2018-12-07T16:14:48.950Z,15.10
2018-12-07T16:17:15.019Z,13.07
2018-12-07T16:19:40.963Z,13.80
2018-12-07T16:22:07.314Z,13.40
2018-12-07T16:24:33.338Z,12.50
2018-12-07T16:27:06.331Z,13.00
2018-12-07T16:29:32.122Z,12.17
2018-12-07T16:31:58.125Z,13.07
2018-12-07T16:34:24.146Z,11.60
2018-12-07T16:36:49.922Z,11.57
2018-12-07T16:39:15.897Z,13.27
2018-12-07T16:41:48.971Z,13.63
2018-12-07T16:44:14.842Z,14.67
2018-12-07T16:46:40.909Z,13.80
2018-12-07T16:49:07.055Z,15.20
2018-12-07T16:51:32.870Z,15.63
2018-12-07T16:53:58.753Z,13.37
2018-12-07T16:56:24.889Z,13.43
2018-12-07T16:58:50.870Z,14.63
2018-12-07T17:01:16.870Z,14.10
2018-12-07T17:03:43.044Z,13.50
2018-12-07T17:06:09.196Z,13.90
2018-12-07T17:08:34.971Z,14.10
2018-12-07T17:11:00.711Z,14.23
2018-12-07T17:13:26.609Z,13.73
2018-12-07T17:15:52.513Z,14.63
2018-12-07T17:18:18.343Z,12.00
2018-12-07T17:20:44.241Z,13.60
2018-12-07T17:23:10.204Z,12.60
2018-12-07T17:25:36.028Z,14.13
2018-12-07T17:28:02.145Z,14.37
2018-12-07T17:30:28.097Z,13.03
2018-12-07T17:32:54.044Z,13.47
2018-12-07T17:35:20.039Z,12.93
2018-12-07T17:37:45.926Z,13.03
2018-12-07T17:40:12.011Z,13.50
2018-12-07T17:42:38.077Z,13.67
2018-12-07T17:45:04.649Z,16.03
2018-12-07T17:47:30.702Z,14.83
2018-12-07T17:49:56.677Z,14.13
2018-12-07T17:52:22.459Z,13.67
2018-12-07T17:54:48.511Z,15.50
2018-12-07T17:57:14.382Z,15.93
2018-12-07T17:59:40.210Z,17.80
2018-12-07T18:02:06.148Z,17.90
2018-12-07T18:04:31.887Z,18.50
2018-12-07T18:06:57.763Z,18.53
2018-12-07T18:09:23.807Z,21.13
2018-12-07T18:11:49.695Z,17.63
2018-12-07T18:14:15.865Z,17.03
2018-12-07T18:16:41.904Z,16.20
2018-12-07T18:19:07.840Z,18.73
2018-12-07T18:21:34.146Z,18.97
2018-12-07T18:23:59.951Z,16.63
2018-12-07T18:26:25.827Z,17.77
2018-12-07T18:28:51.822Z,17.20
2018-12-07T18:31:17.875Z,17.13
2018-12-07T18:33:43.750Z,18.53
2018-12-07T18:36:09.833Z,17.27
2018-12-07T18:38:35.664Z,15.87
2018-12-07T18:41:01.542Z,17.13
2018-12-07T18:43:27.546Z,17.83
2018-12-07T18:45:53.366Z,18.67
2018-12-07T18:48:19.337Z,15.50
2018-12-07T18:50:45.247Z,17.37
2018-12-07T18:53:11.000Z,16.90
2018-12-07T18:55:37.050Z,16.73
2018-12-07T18:58:03.070Z,16.93
2018-12-07T19:00:29.022Z,16.83
2018-12-07T19:02:54.934Z,17.40
2018-12-07T19:05:21.030Z,18.57
2018-12-07T19:07:47.058Z,18.30
2018-12-07T19:10:12.924Z,16.83
2018-12-07T19:12:38.696Z,18.47
2018-12-07T19:15:05.477Z,17.70
2018-12-07T19:17:31.520Z,19.37
2018-12-07T19:19:57.493Z,18.03
2018-12-07T19:22:23.874Z,16.43
2018-12-07T19:24:50.251Z,15.43
2018-12-07T19:27:16.570Z,17.43
2018-12-07T19:29:45.559Z,16.80
2018-12-07T19:32:12.012Z,17.17
2018-12-07T19:34:38.275Z,16.47
2018-12-07T19:37:04.690Z,15.53
2018-12-07T19:39:31.873Z,15.43
2018-12-07T19:41:58.018Z,15.20
2018-12-07T19:44:24.127Z,13.60
2018-12-07T19:46:55.968Z,13.23
2018-12-07T19:49:23.269Z,12.00
2018-12-07T19:51:52.427Z,12.53
2018-12-07T19:54:18.321Z,13.83
2018-12-07T19:56:44.855Z,14.33
2018-12-07T19:59:11.196Z,13.63
2018-12-07T20:01:37.052Z,13.23
2018-12-07T20:04:11.482Z,13.37
2018-12-07T20:06:40.226Z,11.43
2018-12-07T20:09:07.873Z,11.93
2018-12-07T20:11:35.270Z,11.17
2018-12-07T20:14:03.710Z,12.00
2018-12-07T20:16:30.246Z,10.57
2018-12-07T20:18:57.161Z,8.47
2018-12-07T20:21:29.138Z,7.80
2018-12-07T20:24:00.028Z,5.03
2018-12-07T20:26:28.114Z,4.77
2018-12-07T20:28:55.430Z,2.80
2018-12-07T20:31:29.075Z,3.30
2018-12-07T20:33:56.579Z,2.20
2018-12-07T20:36:23.437Z,2.30
2018-12-07T20:38:49.572Z,2.20
2018-12-07T20:41:16.456Z,1.93
2018-12-07T20:43:44.418Z,2.13
2018-12-07T20:46:10.764Z,1.83
2018-12-07T20:48:37.397Z,2.10
2018-12-07T20:51:06.235Z,2.03
2018-12-07T20:53:32.935Z,2.50
2018-12-07T20:55:59.301Z,1.83
2018-12-07T20:58:28.972Z,1.83
2018-12-07T21:00:59.194Z,2.33
2018-12-07T21:03:27.682Z,2.13
2018-12-07T21:09:22.860Z,2.57
2018-12-07T21:11:53.677Z,3.03
2018-12-07T21:14:24.531Z,2.50
2018-12-07T21:17:06.109Z,2.80
2018-12-07T21:19:36.161Z,2.77
2018-12-07T21:22:06.881Z,2.87
2018-12-07T21:24:33.714Z,3.00
2018-12-07T21:27:00.003Z,2.83
2018-12-07T21:29:28.831Z,2.53
2018-12-07T21:31:58.085Z,3.20
2018-12-07T21:37:26.137Z,3.13
2018-12-07T21:39:55.467Z,2.87
2018-12-07T21:42:21.362Z,2.93
2018-12-07T21:44:47.908Z,3.50
2018-12-07T21:47:14.423Z,3.10
2018-12-07T21:49:40.694Z,2.73
2018-12-07T21:52:12.383Z,3.13
2018-12-07T21:54:39.933Z,3.00
2018-12-07T21:57:07.081Z,2.83
2018-12-07T21:59:34.877Z,3.30
2018-12-07T22:02:06.119Z,3.27
2018-12-07T22:04:33.418Z,3.40
2018-12-07T22:07:04.065Z,3.60
2018-12-07T22:09:32.422Z,3.30
2018-12-07T22:12:00.147Z,3.40
2018-12-07T22:14:29.360Z,3.53
2018-12-07T22:16:56.954Z,3.93
2018-12-07T22:19:25.495Z,3.53
2018-12-07T22:21:51.781Z,3.47
2018-12-07T22:24:17.744Z,3.53
2018-12-07T22:26:44.587Z,2.77
2018-12-07T22:29:17.932Z,2.87
2018-12-07T22:31:44.499Z,4.07
2018-12-07T22:34:12.627Z,3.10
2018-12-07T22:36:39.379Z,3.70
2018-12-07T22:39:06.072Z,2.47
2018-12-07T22:41:33.046Z,3.37
2018-12-07T22:44:01.648Z,3.20
2018-12-07T22:46:29.876Z,3.43
2018-12-07T22:48:56.104Z,3.57
2018-12-07T22:51:24.458Z,4.20
2018-12-07T22:53:52.253Z,3.47
2018-12-07T22:56:19.378Z,3.20
2018-12-07T22:58:45.108Z,3.60
2018-12-07T23:01:10.982Z,3.53
2018-12-07T23:03:36.831Z,3.47
2018-12-07T23:06:02.765Z,3.70
2018-12-07T23:08:35.443Z,3.07
2018-12-07T23:11:01.304Z,2.80
2018-12-07T23:13:27.742Z,3.17
2018-12-07T23:15:54.964Z,2.70
2018-12-07T23:18:22.893Z,3.13
2018-12-07T23:20:49.251Z,3.13
2018-12-07T23:23:16.558Z,3.33
2018-12-07T23:25:43.061Z,3.80
2018-12-07T23:28:08.805Z,3.33
2018-12-07T23:30:34.535Z,4.30
2018-12-07T23:33:00.690Z,3.53
2018-12-07T23:35:26.547Z,3.93
2018-12-07T23:37:52.643Z,4.43
2018-12-07T23:40:18.487Z,4.03
2018-12-07T23:42:44.320Z,4.47
2018-12-07T23:45:10.309Z,4.10
2018-12-07T23:47:37.420Z,4.13
2018-12-07T23:50:05.320Z,4.03
2018-12-07T23:52:31.052Z,5.53
2018-12-07T23:54:56.769Z,4.40
2018-12-07T23:57:24.348Z,5.03
2018-12-07T23:59:50.162Z,4.37
